Time,TemperatureF,DewpointF,PressureIn,WindDirection,WindDirectionDegrees,WindSpeedMPH,WindSpeedGustMPH,Humidity,HourlyPrecipIn,Conditions,Clouds,dailyrainin,SoftwareType,DateUTC
2013-07-02 00:04:00,69.6,43.6,30.03,NNE,27,0.0,0.0,39,0.00,CLR,CLR,0.00,WeatherDisplay:10.36,2013-07-02 05:04:00,
2013-07-02 00:09:00,69.4,43.4,30.03,North,351,3.6,0.0,39,0.00,CLR,CLR,0.00,WeatherDisplay:10.36,2013-07-02 05:09:00,
2013-07-02 00:14:00,69.4,44.1,30.03,North,351,0.0,2.7,40,0.00,CLR,CLR,0.00,WeatherDisplay:10.36,2013-07-02 05:14:00,
2013-07-02 00:20:00,69.3,43.9,30.35,NE,43,4.0,4.0,40,0.00,CLR,CLR,0.00,WeatherDisplay:10.36,2013-07-02 05:20:00,
2013-07-02 00:25:00,69.1,43.1,30.35,NE,43,0.0,0.0,39,0.00,CLR,CLR,0.00,WeatherDisplay:10.36,2013-07-02 05:25:00,
2013-07-02 00:30:00,69.1,43.7,30.35,NE,45,4.0,0.0,40,0.00,CLR,CLR,0.00,WeatherDisplay:10.36,2013-07-02 05:30:00,
2013-07-02 00:35:00,68.9,43.6,30.03,NE,44,4.6,0.0,40,0.00,CLR,CLR,0.00,WeatherDisplay:10.36,2013-07-02 05:35:00,
2013-07-02 00:40:00,68.9,44.2,30.03,NE,45,5.8,5.8,41,0.00,CLR,CLR,0.00,WeatherDisplay:10.36,2013-07-02 05:40:00,
2013-07-02 00:45:00,68.9,44.2,30.03,NE,45,3.6,0.0,41,0.00,CLR,CLR,0.00,WeatherDisplay:10.36,2013-07-02 05:45:00,
2013-07-02 00:50:00,68.7,44.1,30.03,NE,44,3.5,0.0,41,0.00,CLR,CLR,0.00,WeatherDisplay:10.36,2013-07-02 05:50:00,
2013-07-02 00:55:00,68.5,44.5,30.03,NE,42,4.0,0.0,42,0.00,CLR,CLR,0.00,WeatherDisplay:10.36,2013-07-02 05:55:00,
2013-07-02 01:00:00,68.5,44.5,30.03,NE,43,5.8,5.8,42,0.00,CLR,CLR,0.00,WeatherDisplay:10.36,2013-07-02 06:00:00,
2013-07-02 01:05:00,68.4,44.4,30.85,North,351,4.0,0.0,42,0.00,CLR,CLR,0.00,WeatherDisplay:10.36,2013-07-02 06:05:00,
2013-07-02 01:10:00,68.2,44.2,30.85,North,351,3.5,4.0,42,0.00,CLR,CLR,0.00,WeatherDisplay:10.36,2013-07-02 06:10:00,
2013-07-02 01:15:00,68.2,44.2,30.85,North,351,5.8,5.8,42,0.00,CLR,CLR,0.00,WeatherDisplay:10.36,2013-07-02 06:15:00,
2013-07-02 01:20:00,68.2,44.2,30.03,NE,43,0.0,0.0,42,0.00,CLR,CLR,0.00,WeatherDisplay:10.36,2013-07-02 06:20:00,
2013-07-02 01:25:00,68.0,44.0,30.03,NE,43,5.8,0.0,42,0.00,CLR,CLR,0.00,WeatherDisplay:10.36,2013-07-02 06:25:00,
2013-07-02 01:30:00,68.0,44.0,30.03,North,351,5.8,5.8,42,0.00,CLR,CLR,0.00,WeatherDisplay:10.36,2013-07-02 06:30:00,
2013-07-02 01:35:00,67.8,43.9,30.03,North,351,6.9,6.9,42,0.00,CLR,CLR,0.00,WeatherDisplay:10.36,2013-07-02 06:35:00,
2013-07-02 01:40:00,67.8,44.5,30.03,North,351,0.0,0.0,43,0.00,CLR,CLR,0.00,WeatherDisplay:10.36,2013-07-02 06:40:00,
2013-07-02 01:45:00,67.6,44.3,30.03,North,351,3.5,0.0,43,0.00,CLR,CLR,0.00,WeatherDisplay:10.36,2013-07-02 06:45:00,
2013-07-02 01:50:00,67.6,44.3,30.76,NE,44,4.9,4.9,43,0.00,CLR,CLR,0.00,WeatherDisplay:10.36,2013-07-02 06:50:00,
2013-07-02 01:55:00,67.5,44.2,30.76,NE,44,5.8,5.8,43,0.00,CLR,CLR,0.00,WeatherDisplay:10.36,2013-07-02 06:55:00,
2013-07-02 02:00:00,67.5,44.2,30.76,WSW,246,6.9,6.9,43,0.00,CLR,CLR,0.00,WeatherDisplay:10.36,2013-07-02 07:00:00,
2013-07-02 02:06:00,67.3,44.0,30.00,NE,44,6.3,6.3,43,0.00,CLR,CLR,0.00,WeatherDisplay:10.36,2013-07-02 07:06:00,
2013-07-02 02:11:00,67.3,44.0,30.00,North,351,5.8,5.8,43,0.00,CLR,CLR,0.00,WeatherDisplay:10.36,2013-07-02 07:11:00,
2013-07-02 02:16:00,67.3,44.0,30.00,NE,44,4.9,0.0,43,0.00,CLR,CLR,0.00,WeatherDisplay:10.36,2013-07-02 07:16:00,
2013-07-02 02:21:00,67.1,43.8,30.82,NE,43,0.0,0.0,43,0.00,CLR,CLR,0.00,WeatherDisplay:10.36,2013-07-02 07:21:00,
2013-07-02 02:26:00,67.1,44.4,30.82,NE,45,6.9,6.9,44,0.00,CLR,CLR,0.00,WeatherDisplay:10.36,2013-07-02 07:26:00,
2013-07-02 02:31:00,66.9,44.3,30.82,NE,43,4.9,4.9,44,0.00,CLR,CLR,0.00,WeatherDisplay:10.36,2013-07-02 07:31:00,
2013-07-02 02:36:00,67.1,44.4,30.88,NE,43,5.8,5.8,44,0.00,CLR,CLR,0.00,WeatherDisplay:10.36,2013-07-02 07:36:00,
2013-07-02 02:41:00,66.9,44.3,30.88,NE,43,4.0,4.0,44,0.00,CLR,CLR,0.00,WeatherDisplay:10.36,2013-07-02 07:41:00,
2013-07-02 02:46:00,66.9,44.3,30.88,NE,45,6.3,6.3,44,0.00,CLR,CLR,0.00,WeatherDisplay:10.36,2013-07-02 07:46:00,
2013-07-02 02:51:00,66.7,44.1,30.00,NE,44,5.8,5.8,44,0.00,CLR,CLR,0.00,WeatherDisplay:10.36,2013-07-02 07:51:00,
2013-07-02 02:56:00,66.7,44.1,30.00,NE,45,5.8,5.8,44,0.00,CLR,CLR,0.00,WeatherDisplay:10.36,2013-07-02 07:56:00,
2013-07-02 03:01:00,66.6,44.5,30.00,NE,45,5.8,5.8,45,0.00,CLR,CLR,0.00,WeatherDisplay:10.36,2013-07-02 08:01:00,
2013-07-02 03:06:00,66.6,44.5,30.00,NE,44,5.8,5.8,45,0.00,CLR,CLR,0.00,WeatherDisplay:10.36,2013-07-02 08:06:00,
2013-07-02 03:11:00,66.6,44.5,30.00,NE,44,5.8,5.8,45,0.00,CLR,CLR,0.00,WeatherDisplay:10.36,2013-07-02 08:11:00,
2013-07-02 03:16:00,66.4,44.4,30.00,West,261,6.9,6.9,45,0.00,CLR,CLR,0.00,WeatherDisplay:10.36,2013-07-02 08:16:00,
2013-07-02 03:21:00,66.4,44.4,30.00,NE,45,8.7,8.7,45,0.00,CLR,CLR,0.00,WeatherDisplay:10.36,2013-07-02 08:21:00,
2013-07-02 03:26:00,66.2,44.2,30.00,NE,45,7.4,7.4,45,0.00,CLR,CLR,0.00,WeatherDisplay:10.36,2013-07-02 08:26:00,
2013-07-02 03:31:00,66.2,44.2,30.00,NE,44,4.9,4.9,45,0.00,CLR,CLR,0.00,WeatherDisplay:10.36,2013-07-02 08:31:00,
2013-07-02 03:36:00,66.2,44.8,30.00,NE,43,7.4,7.4,46,0.00,CLR,CLR,0.00,WeatherDisplay:10.36,2013-07-02 08:36:00,
2013-07-02 03:41:00,66.2,44.8,30.00,North,351,5.8,5.8,46,0.00,CLR,CLR,0.00,WeatherDisplay:10.36,2013-07-02 08:41:00,
2013-07-02 03:46:00,66.0,44.6,30.00,North,351,7.4,0.0,46,0.00,CLR,CLR,0.00,WeatherDisplay:10.36,2013-07-02 08:46:00,
2013-07-02 03:51:00,66.0,44.1,30.00,NE,44,8.1,8.1,45,0.00,CLR,CLR,0.00,WeatherDisplay:10.36,2013-07-02 08:51:00,
2013-07-02 03:56:00,65.8,44.5,30.00,WSW,254,9.2,9.2,46,0.00,CLR,CLR,0.00,WeatherDisplay:10.36,2013-07-02 08:56:00,
2013-07-02 04:01:00,65.8,44.5,30.00,North,351,7.4,7.4,46,0.00,CLR,CLR,0.00,WeatherDisplay:10.36,2013-07-02 09:01:00,
2013-07-02 04:06:00,65.7,44.3,30.82,NE,44,9.2,9.2,46,0.00,CLR,CLR,0.00,WeatherDisplay:10.36,2013-07-02 09:06:00,
2013-07-02 04:11:00,65.7,44.3,30.82,North,351,9.6,9.6,46,0.00,CLR,CLR,0.00,WeatherDisplay:10.36,2013-07-02 09:11:00,
2013-07-02 04:16:00,65.7,44.3,30.82,North,351,5.8,5.8,46,0.00,CLR,CLR,0.00,WeatherDisplay:10.36,2013-07-02 09:16:00,
2013-07-02 04:21:00,65.5,44.1,30.00,North,351,7.4,7.4,46,0.00,CLR,CLR,0.00,WeatherDisplay:10.36,2013-07-02 09:21:00,
2013-07-02 04:26:00,65.5,44.1,30.00,NE,42,7.4,7.4,46,0.00,CLR,CLR,0.00,WeatherDisplay:10.36,2013-07-02 09:26:00,
2013-07-02 04:31:00,65.3,44.5,30.00,NNE,29,6.9,6.9,47,0.00,CLR,CLR,0.00,WeatherDisplay:10.36,2013-07-02 09:31:00,
2013-07-02 04:36:00,65.1,44.4,30.00,NE,44,8.1,8.1,47,0.00,CLR,CLR,0.00,WeatherDisplay:10.36,2013-07-02 09:36:00,
2013-07-02 04:41:00,65.1,44.4,30.00,North,351,5.8,5.8,47,0.00,CLR,CLR,0.00,WeatherDisplay:10.36,2013-07-02 09:41:00,
2013-07-02 04:46:00,65.1,44.4,30.00,North,351,5.8,5.8,47,0.00,CLR,CLR,0.00,WeatherDisplay:10.36,2013-07-02 09:46:00,
2013-07-02 04:51:00,65.1,44.4,30.03,North,351,8.7,8.7,47,0.00,CLR,CLR,0.00,WeatherDisplay:10.36,2013-07-02 09:51:00,
2013-07-02 04:56:00,65.1,44.4,30.03,North,351,6.9,6.9,47,0.00,CLR,CLR,0.00,WeatherDisplay:10.36,2013-07-02 09:56:00,
2013-07-02 05:01:00,64.9,44.8,30.03,NE,44,4.9,4.9,48,0.00,CLR,CLR,0.00,WeatherDisplay:10.36,2013-07-02 10:01:00,
2013-07-02 05:06:00,64.8,44.6,30.03,NE,45,7.4,7.4,48,0.00,CLR,CLR,0.00,WeatherDisplay:10.36,2013-07-02 10:06:00,
2013-07-02 05:11:00,64.8,44.6,30.03,North,351,4.9,4.9,48,0.00,CLR,CLR,0.00,WeatherDisplay:10.36,2013-07-02 10:11:00,
2013-07-02 05:16:00,64.8,44.6,30.03,North,351,4.9,4.9,48,0.00,CLR,CLR,0.00,WeatherDisplay:10.36,2013-07-02 10:16:00,
2013-07-02 05:22:00,64.6,45.5,30.82,NE,44,4.0,4.0,50,0.00,CLR,CLR,0.00,WeatherDisplay:10.36,2013-07-02 10:22:00,
2013-07-02 05:27:00,64.4,44.8,30.82,NE,45,6.9,6.9,49,0.00,CLR,CLR,0.00,WeatherDisplay:10.36,2013-07-02 10:27:00,
2013-07-02 05:32:00,64.4,45.3,30.82,North,351,9.6,9.6,50,0.00,CLR,CLR,0.00,WeatherDisplay:10.36,2013-07-02 10:32:00,
2013-07-02 05:38:00,64.2,45.2,30.03,North,351,6.3,6.3,50,0.00,CLR,CLR,0.00,WeatherDisplay:10.36,2013-07-02 10:38:00,
2013-07-02 05:43:00,64.2,45.2,30.03,NE,44,8.3,8.3,50,0.00,CLR,CLR,0.00,WeatherDisplay:10.36,2013-07-02 10:43:00,
2013-07-02 05:48:00,64.0,45.0,30.82,North,351,6.9,0.0,50,0.00,CLR,CLR,0.00,WeatherDisplay:10.36,2013-07-02 10:48:00,
2013-07-02 05:53:00,64.0,45.5,30.82,West,261,6.9,6.9,51,0.00,CLR,CLR,0.00,WeatherDisplay:10.36,2013-07-02 10:53:00,
2013-07-02 05:58:00,64.2,45.7,30.82,NE,43,7.4,7.4,51,0.00,CLR,CLR,0.00,WeatherDisplay:10.36,2013-07-02 10:58:00,
2013-07-02 06:03:00,64.4,46.4,30.85,WSW,257,5.8,5.8,52,0.00,CLR,CLR,0.00,WeatherDisplay:10.36,2013-07-02 11:03:00,
2013-07-02 06:08:00,64.2,46.2,30.85,West,261,3.6,0.0,52,0.00,CLR,CLR,0.00,WeatherDisplay:10.36,2013-07-02 11:08:00,
2013-07-02 06:14:00,64.2,46.2,30.85,NE,45,4.0,4.0,52,0.00,CLR,CLR,0.00,WeatherDisplay:10.36,2013-07-02 11:14:00,
2013-07-02 06:20:00,64.0,46.6,30.03,NE,45,4.9,4.9,53,0.00,CLR,CLR,0.00,WeatherDisplay:10.36,2013-07-02 11:20:00,
2013-07-02 06:26:00,64.0,46.6,30.03,West,263,2.7,0.0,53,0.00,CLR,CLR,0.00,WeatherDisplay:10.36,2013-07-02 11:26:00,
2013-07-02 06:31:00,64.0,46.6,30.03,North,351,0.0,0.0,53,0.00,CLR,CLR,0.00,WeatherDisplay:10.36,2013-07-02 11:31:00,
2013-07-02 06:37:00,63.9,46.4,30.82,NE,45,6.9,6.9,53,0.00,CLR,CLR,0.00,WeatherDisplay:10.36,2013-07-02 11:37:00,
2013-07-02 06:42:00,64.0,47.1,30.82,NE,45,3.6,0.0,54,0.00,CLR,CLR,0.00,WeatherDisplay:10.36,2013-07-02 11:42:00,
2013-07-02 06:47:00,64.2,47.2,30.82,North,351,5.4,0.0,54,0.00,CLR,CLR,0.00,WeatherDisplay:10.36,2013-07-02 11:47:00,
2013-07-02 06:52:00,64.4,47.4,30.82,NE,44,5.8,5.8,54,0.00,CLR,CLR,0.00,WeatherDisplay:10.36,2013-07-02 11:52:00,
2013-07-02 06:57:00,64.4,47.4,30.82,NE,45,5.8,5.8,54,0.00,CLR,CLR,0.00,WeatherDisplay:10.36,2013-07-02 11:57:00,
2013-07-02 07:02:00,64.4,46.4,30.82,West,263,5.8,5.8,52,0.00,CLR,CLR,0.00,WeatherDisplay:10.36,2013-07-02 12:02:00,
2013-07-02 07:07:00,64.4,46.4,30.06,NE,45,6.9,0.0,52,0.00,CLR,CLR,0.00,WeatherDisplay:10.36,2013-07-02 12:07:00,
2013-07-02 07:13:00,64.6,46.0,30.06,North,351,8.1,8.1,51,0.00,CLR,CLR,0.00,WeatherDisplay:10.36,2013-07-02 12:13:00,
2013-07-02 07:18:00,64.4,45.9,30.06,NE,45,4.6,4.6,51,0.00,CLR,CLR,0.00,WeatherDisplay:10.36,2013-07-02 12:18:00,
2013-07-02 07:23:00,64.4,46.4,30.06,NE,45,6.7,0.0,52,0.00,CLR,CLR,0.00,WeatherDisplay:10.36,2013-07-02 12:23:00,
2013-07-02 07:28:00,64.4,45.9,30.06,NE,44,0.0,0.0,51,0.00,CLR,CLR,0.00,WeatherDisplay:10.36,2013-07-02 12:28:00,
2013-07-02 07:33:00,64.8,46.7,30.06,North,351,4.9,0.0,52,0.00,CLR,CLR,0.00,WeatherDisplay:10.36,2013-07-02 12:33:00,
2013-07-02 07:38:00,64.8,46.2,30.06,North,351,7.4,7.4,51,0.00,CLR,CLR,0.00,WeatherDisplay:10.36,2013-07-02 12:38:00,
2013-07-02 07:43:00,64.8,46.2,30.06,NE,44,0.0,0.0,51,0.00,CLR,CLR,0.00,WeatherDisplay:10.36,2013-07-02 12:43:00,
2013-07-02 07:48:00,64.9,46.4,30.06,West,262,0.0,0.0,51,0.00,CLR,CLR,0.00,WeatherDisplay:10.36,2013-07-02 12:48:00,
2013-07-02 07:53:00,65.1,47.1,30.06,NE,45,3.5,0.0,52,0.00,CLR,CLR,0.00,WeatherDisplay:10.36,2013-07-02 12:53:00,
2013-07-02 07:58:00,65.5,46.9,30.06,NE,45,4.9,4.9,51,0.00,CLR,CLR,0.00,WeatherDisplay:10.36,2013-07-02 12:58:00,
2013-07-02 08:03:00,65.7,47.0,30.06,NE,45,5.8,5.8,51,0.00,CLR,CLR,0.00,WeatherDisplay:10.36,2013-07-02 13:03:00,
2013-07-02 08:08:00,65.7,47.0,30.06,North,351,4.6,4.6,51,0.00,CLR,CLR,0.00,WeatherDisplay:10.36,2013-07-02 13:08:00,
2013-07-02 08:14:00,65.8,47.2,30.06,North,351,0.0,0.0,51,0.00,CLR,CLR,0.00,WeatherDisplay:10.36,2013-07-02 13:14:00,
2013-07-02 08:19:00,66.2,47.5,30.06,NE,43,0.0,0.0,51,0.00,CLR,CLR,0.00,WeatherDisplay:10.36,2013-07-02 13:19:00,
2013-07-02 08:24:00,66.6,47.9,30.06,NE,44,6.7,0.0,51,0.00,CLR,CLR,0.00,WeatherDisplay:10.36,2013-07-02 13:24:00,
2013-07-02 08:29:00,66.7,47.5,30.06,NE,44,4.5,4.5,50,0.00,CLR,CLR,0.00,WeatherDisplay:10.36,2013-07-02 13:29:00,
2013-07-02 08:34:00,66.9,47.1,30.06,North,351,6.9,6.9,49,0.00,CLR,CLR,0.00,WeatherDisplay:10.36,2013-07-02 13:34:00,
2013-07-02 08:39:00,67.3,47.5,30.06,NE,45,5.8,0.0,49,0.00,CLR,CLR,0.00,WeatherDisplay:10.36,2013-07-02 13:39:00,
2013-07-02 08:44:00,67.6,47.2,30.06,North,351,8.1,8.1,48,0.00,CLR,CLR,0.00,WeatherDisplay:10.36,2013-07-02 13:44:00,
2013-07-02 08:49:00,68.4,48.5,30.06,NE,42,5.8,5.8,49,0.00,CLR,CLR,0.00,WeatherDisplay:10.36,2013-07-02 13:49:00,
2013-07-02 08:55:00,69.3,48.2,30.06,NE,45,6.7,6.7,47,0.00,CLR,CLR,0.00,WeatherDisplay:10.36,2013-07-02 13:55:00,
2013-07-02 09:00:00,69.8,48.1,30.06,NE,38,6.9,6.9,46,0.00,CLR,CLR,0.00,WeatherDisplay:10.36,2013-07-02 14:00:00,
2013-07-02 09:05:00,70.7,47.1,30.06,NE,44,10.4,10.4,43,0.00,CLR,CLR,0.00,WeatherDisplay:10.36,2013-07-02 14:05:00,
2013-07-02 09:10:00,71.2,47.6,30.06,North,351,6.3,6.3,43,0.00,CLR,CLR,0.00,WeatherDisplay:10.36,2013-07-02 14:10:00,
2013-07-02 09:15:00,71.6,47.3,30.06,NE,43,10.5,10.5,42,0.00,CLR,CLR,0.00,WeatherDisplay:10.36,2013-07-02 14:15:00,
2013-07-02 09:20:00,71.2,47.0,30.06,NE,43,8.1,8.1,42,0.00,CLR,CLR,0.00,WeatherDisplay:10.36,2013-07-02 14:20:00,
2013-07-02 09:25:00,71.1,46.8,30.06,North,351,9.2,9.2,42,0.00,CLR,CLR,0.00,WeatherDisplay:10.36,2013-07-02 14:25:00,
2013-07-02 09:30:00,71.1,47.4,30.06,West,262,10.5,10.5,43,0.00,CLR,CLR,0.00,WeatherDisplay:10.36,2013-07-02 14:30:00,
2013-07-02 09:35:00,71.4,47.7,30.06,NE,45,9.2,9.2,43,0.00,CLR,CLR,0.00,WeatherDisplay:10.36,2013-07-02 14:35:00,
2013-07-02 09:40:00,71.8,47.4,30.06,North,351,6.9,6.9,42,0.00,CLR,CLR,0.00,WeatherDisplay:10.36,2013-07-02 14:40:00,
2013-07-02 09:45:00,72.1,47.8,30.06,West,261,6.3,6.3,42,0.00,CLR,CLR,0.00,WeatherDisplay:10.36,2013-07-02 14:45:00,
2013-07-02 09:50:00,72.5,47.5,30.06,West,263,8.1,8.1,41,0.00,CLR,CLR,0.00,WeatherDisplay:10.36,2013-07-02 14:50:00,
2013-07-02 09:55:00,72.9,48.4,30.06,NNE,27,4.6,0.0,42,0.00,CLR,CLR,0.00,WeatherDisplay:10.36,2013-07-02 14:55:00,
2013-07-02 10:00:00,73.6,47.1,30.06,NE,44,6.9,6.9,39,0.00,CLR,CLR,0.00,WeatherDisplay:10.36,2013-07-02 15:00:00,
2013-07-02 10:05:00,73.8,47.3,30.06,NE,43,6.9,6.9,39,0.00,CLR,CLR,0.00,WeatherDisplay:10.36,2013-07-02 15:05:00,
2013-07-02 10:10:00,73.9,47.4,30.06,NE,43,8.3,8.3,39,0.00,CLR,CLR,0.00,WeatherDisplay:10.36,2013-07-02 15:10:00,
2013-07-02 10:15:00,74.3,47.7,30.06,North,351,6.3,6.3,39,0.00,CLR,CLR,0.00,WeatherDisplay:10.36,2013-07-02 15:15:00,
2013-07-02 10:20:00,74.8,46.1,30.94,NE,41,5.8,5.8,36,0.00,CLR,CLR,0.00,WeatherDisplay:10.36,2013-07-02 15:20:00,
2013-07-02 10:25:00,75.0,45.5,30.94,North,351,6.9,6.9,35,0.00,CLR,CLR,0.00,WeatherDisplay:10.36,2013-07-02 15:25:00,
2013-07-02 10:30:00,74.7,44.4,30.94,North,351,10.4,10.4,34,0.00,CLR,CLR,0.00,WeatherDisplay:10.36,2013-07-02 15:30:00,
2013-07-02 10:36:00,74.7,43.6,30.06,North,351,6.9,6.9,33,0.00,CLR,CLR,0.00,WeatherDisplay:10.36,2013-07-02 15:36:00,
2013-07-02 10:41:00,75.0,43.1,30.06,NE,43,8.1,8.1,32,0.00,CLR,CLR,0.00,WeatherDisplay:10.36,2013-07-02 15:41:00,
2013-07-02 10:46:00,75.4,43.5,30.06,NE,44,3.5,0.0,32,0.00,CLR,CLR,0.00,WeatherDisplay:10.36,2013-07-02 15:46:00,
2013-07-02 10:51:00,75.4,43.5,30.06,North,351,6.7,6.7,32,0.00,CLR,CLR,0.00,WeatherDisplay:10.36,2013-07-02 15:51:00,
2013-07-02 10:56:00,75.6,43.6,30.06,ESE,114,8.1,8.1,32,0.00,CLR,CLR,0.00,WeatherDisplay:10.36,2013-07-02 15:56:00,
2013-07-02 11:01:00,75.7,42.9,30.06,NE,44,6.9,6.9,31,0.00,CLR,CLR,0.00,WeatherDisplay:10.36,2013-07-02 16:01:00,
2013-07-02 11:06:00,76.1,44.1,30.06,NE,42,5.8,5.8,32,0.00,CLR,CLR,0.00,WeatherDisplay:10.36,2013-07-02 16:06:00,
2013-07-02 11:11:00,76.6,42.9,30.06,NE,42,9.2,9.2,30,0.00,CLR,CLR,0.00,WeatherDisplay:10.36,2013-07-02 16:11:00,
2013-07-02 11:16:00,76.6,42.9,30.06,NE,43,6.9,6.9,30,0.00,CLR,CLR,0.00,WeatherDisplay:10.36,2013-07-02 16:16:00,
2013-07-02 11:21:00,76.8,42.1,30.82,NE,44,8.3,8.3,29,0.00,CLR,CLR,0.00,WeatherDisplay:10.36,2013-07-02 16:21:00,
2013-07-02 11:26:00,76.6,42.0,30.82,North,351,6.7,6.7,29,0.00,CLR,CLR,0.00,WeatherDisplay:10.36,2013-07-02 16:26:00,
2013-07-02 11:31:00,76.6,42.9,30.82,NE,43,5.4,5.4,30,0.00,CLR,CLR,0.00,WeatherDisplay:10.36,2013-07-02 16:31:00,
2013-07-02 11:36:00,77.0,43.2,30.06,NE,44,5.8,5.8,30,0.00,CLR,CLR,0.00,WeatherDisplay:10.36,2013-07-02 16:36:00,
2013-07-02 11:42:00,77.4,43.5,30.06,NE,44,8.7,8.7,30,0.00,CLR,CLR,0.00,WeatherDisplay:10.36,2013-07-02 16:42:00,
2013-07-02 11:47:00,77.7,42.0,30.06,West,261,9.6,9.6,28,0.00,CLR,CLR,0.00,WeatherDisplay:10.36,2013-07-02 16:47:00,
2013-07-02 11:52:00,77.9,44.0,30.06,WSW,255,9.2,9.2,30,0.00,CLR,CLR,0.00,WeatherDisplay:10.36,2013-07-02 16:52:00,
2013-07-02 11:57:00,77.9,42.2,30.06,North,351,5.8,5.8,28,0.00,CLR,CLR,0.00,WeatherDisplay:10.36,2013-07-02 16:57:00,
2013-07-02 12:02:00,77.9,42.2,30.06,NNE,27,9.6,9.6,28,0.00,CLR,CLR,0.00,WeatherDisplay:10.36,2013-07-02 17:02:00,
2013-07-02 12:07:00,78.1,44.1,30.06,NE,43,6.9,6.9,30,0.00,CLR,CLR,0.00,WeatherDisplay:10.36,2013-07-02 17:07:00,
2013-07-02 12:12:00,78.4,40.7,30.06,NE,42,13.9,13.9,26,0.00,CLR,CLR,0.00,WeatherDisplay:10.36,2013-07-02 17:12:00,
2013-07-02 12:17:00,78.6,44.6,30.06,North,351,5.8,5.8,30,0.00,CLR,CLR,0.00,WeatherDisplay:10.36,2013-07-02 17:17:00,
2013-07-02 12:22:00,78.8,42.0,30.91,NNE,27,11.5,11.5,27,0.00,CLR,CLR,0.00,WeatherDisplay:10.36,2013-07-02 17:22:00,
2013-07-02 12:27:00,78.8,41.0,30.91,North,351,10.4,10.4,26,0.00,CLR,CLR,0.00,WeatherDisplay:10.36,2013-07-02 17:27:00,
2013-07-02 12:32:00,78.6,40.9,30.91,NE,43,11.5,11.5,26,0.00,CLR,CLR,0.00,WeatherDisplay:10.36,2013-07-02 17:32:00,
2013-07-02 12:37:00,78.6,41.8,30.06,NE,38,6.9,6.9,27,0.00,CLR,CLR,0.00,WeatherDisplay:10.36,2013-07-02 17:37:00,
2013-07-02 12:42:00,78.8,42.9,30.06,NE,43,9.2,0.0,28,0.00,CLR,CLR,0.00,WeatherDisplay:10.36,2013-07-02 17:42:00,
2013-07-02 12:47:00,79.2,45.0,30.06,NNE,27,7.4,7.4,30,0.00,CLR,CLR,0.00,WeatherDisplay:10.36,2013-07-02 17:47:00,
2013-07-02 12:52:00,79.3,41.5,30.06,NE,43,9.2,9.2,26,0.00,CLR,CLR,0.00,WeatherDisplay:10.36,2013-07-02 17:52:00,
2013-07-02 12:57:00,79.2,40.3,30.06,NE,44,5.8,5.8,25,0.00,CLR,CLR,0.00,WeatherDisplay:10.36,2013-07-02 17:57:00,
2013-07-02 13:03:00,79.2,39.2,30.82,NE,41,9.2,9.2,24,0.00,CLR,CLR,0.00,WeatherDisplay:10.36,2013-07-02 18:03:00,
2013-07-02 13:08:00,79.2,40.3,30.82,NE,43,5.8,5.8,25,0.00,CLR,CLR,0.00,WeatherDisplay:10.36,2013-07-02 18:08:00,
2013-07-02 13:13:00,79.2,39.2,30.82,NE,44,7.8,7.8,24,0.00,CLR,CLR,0.00,WeatherDisplay:10.36,2013-07-02 18:13:00,
2013-07-02 13:18:00,79.3,41.5,30.03,NE,38,5.8,5.8,26,0.00,CLR,CLR,0.00,WeatherDisplay:10.36,2013-07-02 18:18:00,
2013-07-02 13:23:00,79.0,38.0,30.03,NE,43,7.8,7.8,23,0.00,CLR,CLR,0.00,WeatherDisplay:10.36,2013-07-02 18:23:00,
2013-07-02 13:28:00,79.0,40.1,30.03,NE,44,6.9,6.9,25,0.00,CLR,CLR,0.00,WeatherDisplay:10.36,2013-07-02 18:28:00,
2013-07-02 13:33:00,79.3,39.4,30.85,North,351,11.5,11.5,24,0.00,CLR,CLR,0.00,WeatherDisplay:10.36,2013-07-02 18:33:00,
2013-07-02 13:38:00,79.5,40.6,30.85,NNE,27,5.8,5.8,25,0.00,CLR,CLR,0.00,WeatherDisplay:10.36,2013-07-02 18:38:00,
2013-07-02 13:43:00,79.9,39.9,30.85,North,351,3.6,3.6,24,0.00,CLR,CLR,0.00,WeatherDisplay:10.36,2013-07-02 18:43:00,
2013-07-02 13:48:00,80.2,40.2,30.03,NNE,30,4.6,4.6,24,0.00,CLR,CLR,0.00,WeatherDisplay:10.36,2013-07-02 18:48:00,
2013-07-02 13:53:00,80.4,41.4,30.03,NNE,31,4.0,0.0,25,0.00,CLR,CLR,0.00,WeatherDisplay:10.36,2013-07-02 18:53:00,
2013-07-02 13:58:00,80.1,38.9,30.03,NE,36,5.8,5.8,23,0.00,CLR,CLR,0.00,WeatherDisplay:10.36,2013-07-02 18:58:00,
2013-07-02 14:03:00,79.7,39.7,30.03,NE,36,6.9,6.9,24,0.00,CLR,CLR,0.00,WeatherDisplay:10.36,2013-07-02 19:03:00,
2013-07-02 14:08:00,79.0,39.1,30.03,North,351,10.5,10.5,24,0.00,CLR,CLR,0.00,WeatherDisplay:10.36,2013-07-02 19:08:00,
2013-07-02 14:13:00,78.6,39.8,30.03,NE,44,4.6,4.6,25,0.00,CLR,CLR,0.00,WeatherDisplay:10.36,2013-07-02 19:13:00,
2013-07-02 14:18:00,78.6,39.8,30.85,North,351,3.5,0.0,25,0.00,CLR,CLR,0.00,WeatherDisplay:10.36,2013-07-02 19:18:00,
2013-07-02 14:23:00,79.0,42.1,30.85,NE,43,4.6,4.6,27,0.00,CLR,CLR,0.00,WeatherDisplay:10.36,2013-07-02 19:23:00,
2013-07-02 14:28:00,79.3,40.4,30.85,North,351,6.9,6.9,25,0.00,CLR,CLR,0.00,WeatherDisplay:10.36,2013-07-02 19:28:00,
2013-07-02 14:33:00,79.3,39.4,30.85,North,351,6.9,6.9,24,0.00,CLR,CLR,0.00,WeatherDisplay:10.36,2013-07-02 19:33:00,
2013-07-02 14:38:00,79.5,40.6,30.85,NE,44,6.9,6.9,25,0.00,CLR,CLR,0.00,WeatherDisplay:10.36,2013-07-02 19:38:00,
2013-07-02 14:43:00,79.5,40.6,30.85,North,351,5.8,5.8,25,0.00,CLR,CLR,0.00,WeatherDisplay:10.36,2013-07-02 19:43:00,
2013-07-02 14:48:00,79.3,40.4,30.85,NE,44,6.9,6.9,25,0.00,CLR,CLR,0.00,WeatherDisplay:10.36,2013-07-02 19:48:00,
2013-07-02 14:53:00,79.5,42.6,30.03,NE,43,4.6,4.6,27,0.00,CLR,CLR,0.00,WeatherDisplay:10.36,2013-07-02 19:53:00,
2013-07-02 14:58:00,79.7,40.8,30.03,NNE,27,7.4,7.4,25,0.00,CLR,CLR,0.00,WeatherDisplay:10.36,2013-07-02 19:58:00,
2013-07-02 15:03:00,79.9,41.9,30.03,North,351,7.4,0.0,26,0.00,CLR,CLR,0.00,WeatherDisplay:10.36,2013-07-02 20:03:00,
2013-07-02 15:08:00,80.2,43.2,30.03,NE,43,4.5,0.0,27,0.00,CLR,CLR,0.00,WeatherDisplay:10.36,2013-07-02 20:08:00,
2013-07-02 15:14:00,80.8,43.7,30.03,NE,43,6.3,6.3,27,0.00,CLR,CLR,0.00,WeatherDisplay:10.36,2013-07-02 20:14:00,
2013-07-02 15:19:00,81.0,41.8,30.03,NE,43,5.8,5.8,25,0.00,CLR,CLR,0.00,WeatherDisplay:10.36,2013-07-02 20:19:00,
2013-07-02 15:24:00,80.8,42.7,30.03,North,351,9.2,9.2,26,0.00,CLR,CLR,0.00,WeatherDisplay:10.36,2013-07-02 20:24:00,
2013-07-02 15:29:00,80.4,41.4,30.03,NE,44,5.8,5.8,25,0.00,CLR,CLR,0.00,WeatherDisplay:10.36,2013-07-02 20:29:00,
2013-07-02 15:34:00,80.4,43.4,30.03,NE,43,4.6,0.0,27,0.00,CLR,CLR,0.00,WeatherDisplay:10.36,2013-07-02 20:34:00,
2013-07-02 15:39:00,80.2,45.1,30.03,NE,43,0.0,0.0,29,0.00,CLR,CLR,0.00,WeatherDisplay:10.36,2013-07-02 20:39:00,
2013-07-02 15:44:00,80.2,45.1,30.03,North,351,2.3,0.0,29,0.00,CLR,CLR,0.00,WeatherDisplay:10.36,2013-07-02 20:44:00,
2013-07-02 15:49:00,79.9,45.7,30.85,North,351,0.0,0.0,30,0.00,CLR,CLR,0.00,WeatherDisplay:10.36,2013-07-02 20:49:00,
2013-07-02 15:54:00,79.9,45.7,30.85,NE,42,0.0,0.0,30,0.00,CLR,CLR,0.00,WeatherDisplay:10.36,2013-07-02 20:54:00,
2013-07-02 15:59:00,79.5,45.4,30.85,North,351,0.0,0.0,30,0.00,CLR,CLR,0.00,WeatherDisplay:10.36,2013-07-02 20:59:00,
2013-07-02 16:04:00,79.2,45.0,30.82,North,351,4.9,4.9,30,0.00,CLR,CLR,0.00,WeatherDisplay:10.36,2013-07-02 21:04:00,
2013-07-02 16:09:00,79.0,44.9,30.82,North,351,2.7,0.0,30,0.00,CLR,CLR,0.00,WeatherDisplay:10.36,2013-07-02 21:09:00,
2013-07-02 16:14:00,79.2,45.0,30.82,NNE,27,0.0,0.0,30,0.00,CLR,CLR,0.00,WeatherDisplay:10.36,2013-07-02 21:14:00,
2013-07-02 16:19:00,79.2,45.0,30.03,NE,43,4.0,0.0,30,0.00,CLR,CLR,0.00,WeatherDisplay:10.36,2013-07-02 21:19:00,
2013-07-02 16:24:00,79.2,45.0,30.03,NE,43,0.0,0.0,30,0.00,CLR,CLR,0.00,WeatherDisplay:10.36,2013-07-02 21:24:00,
2013-07-02 16:29:00,79.2,45.9,30.03,NE,43,0.0,0.0,31,0.00,CLR,CLR,0.00,WeatherDisplay:10.36,2013-07-02 21:29:00,
2013-07-02 16:35:00,79.2,45.9,30.03,NE,43,3.5,0.0,31,0.00,CLR,CLR,0.00,WeatherDisplay:10.36,2013-07-02 21:35:00,
2013-07-02 16:40:00,79.2,45.0,30.03,NE,43,2.7,0.0,30,0.00,CLR,CLR,0.00,WeatherDisplay:10.36,2013-07-02 21:40:00,
2013-07-02 16:46:00,79.0,44.9,30.03,NE,43,0.0,0.0,30,0.00,CLR,CLR,0.00,WeatherDisplay:10.36,2013-07-02 21:46:00,
2013-07-02 16:51:00,79.3,46.1,30.03,NE,43,0.0,0.0,31,0.00,CLR,CLR,0.00,WeatherDisplay:10.36,2013-07-02 21:51:00,
2013-07-02 16:56:00,79.7,46.4,30.03,NE,43,0.0,0.0,31,0.00,CLR,CLR,0.00,WeatherDisplay:10.36,2013-07-02 21:56:00,
2013-07-02 17:01:00,79.7,46.4,30.03,NE,43,0.0,0.0,31,0.00,CLR,CLR,0.00,WeatherDisplay:10.36,2013-07-02 22:01:00,
2013-07-02 17:06:00,79.9,46.5,30.00,NE,42,0.0,0.0,31,0.00,CLR,CLR,0.00,WeatherDisplay:10.36,2013-07-02 22:06:00,
2013-07-02 17:11:00,80.1,46.7,30.00,NE,42,3.6,0.0,31,0.00,CLR,CLR,0.00,WeatherDisplay:10.36,2013-07-02 22:11:00,
2013-07-02 17:16:00,80.1,45.8,30.00,NE,42,4.0,0.0,30,0.00,CLR,CLR,0.00,WeatherDisplay:10.36,2013-07-02 22:16:00,
2013-07-02 17:21:00,80.2,46.9,30.00,NE,41,0.0,0.0,31,0.00,CLR,CLR,0.00,WeatherDisplay:10.36,2013-07-02 22:21:00,
2013-07-02 17:26:00,80.4,47.0,30.00,NE,41,0.0,0.0,31,0.00,CLR,CLR,0.00,WeatherDisplay:10.36,2013-07-02 22:26:00,
2013-07-02 17:31:00,80.6,46.3,30.00,NE,42,0.0,0.0,30,0.00,CLR,CLR,0.00,WeatherDisplay:10.36,2013-07-02 22:31:00,
2013-07-02 17:36:00,80.4,46.1,30.00,NE,42,0.0,0.0,30,0.00,CLR,CLR,0.00,WeatherDisplay:10.36,2013-07-02 22:36:00,
2013-07-02 17:41:00,80.4,46.1,30.00,NE,42,0.0,0.0,30,0.00,CLR,CLR,0.00,WeatherDisplay:10.36,2013-07-02 22:41:00,
2013-07-02 17:46:00,80.2,45.1,30.00,NE,42,0.0,0.0,29,0.00,CLR,CLR,0.00,WeatherDisplay:10.36,2013-07-02 22:46:00,
2013-07-02 17:51:00,79.7,45.5,30.00,NE,42,0.0,0.0,30,0.00,CLR,CLR,0.00,WeatherDisplay:10.36,2013-07-02 22:51:00,
2013-07-02 17:56:00,79.3,45.2,30.00,NE,42,0.0,0.0,30,0.00,CLR,CLR,0.00,WeatherDisplay:10.36,2013-07-02 22:56:00,
2013-07-02 18:01:00,79.3,46.1,30.00,NE,42,0.0,0.0,31,0.00,CLR,CLR,0.00,WeatherDisplay:10.36,2013-07-02 23:01:00,
2013-07-02 18:06:00,79.2,45.0,30.00,NE,42,2.7,0.0,30,0.00,CLR,CLR,0.00,WeatherDisplay:10.36,2013-07-02 23:06:00,
2013-07-02 18:11:00,79.2,45.9,30.00,NE,42,0.0,0.0,31,0.00,CLR,CLR,0.00,WeatherDisplay:10.36,2013-07-02 23:11:00,
2013-07-02 18:16:00,79.2,45.9,30.00,NE,41,0.0,0.0,31,0.00,CLR,CLR,0.00,WeatherDisplay:10.36,2013-07-02 23:16:00,
2013-07-02 18:21:00,79.2,45.9,30.00,NE,41,0.0,0.0,31,0.00,CLR,CLR,0.00,WeatherDisplay:10.36,2013-07-02 23:21:00,
2013-07-02 18:26:00,79.0,45.8,30.00,NE,42,0.0,0.0,31,0.00,CLR,CLR,0.00,WeatherDisplay:10.36,2013-07-02 23:26:00,
2013-07-02 18:30:00,78.8,45.6,30.00,NE,42,0.0,0.0,31,0.00,CLR,CLR,0.00,WeatherDisplay:10.36,2013-07-02 23:30:00,
2013-07-02 18:35:00,78.6,45.4,30.00,NE,41,0.0,0.0,31,0.00,CLR,CLR,0.00,WeatherDisplay:10.36,2013-07-02 23:35:00,
2013-07-02 18:40:00,78.6,45.4,30.00,NE,42,0.0,0.0,31,0.00,CLR,CLR,0.00,WeatherDisplay:10.36,2013-07-02 23:40:00,
2013-07-02 18:45:00,78.6,45.4,30.00,NE,36,4.6,4.6,31,0.00,CLR,CLR,0.00,WeatherDisplay:10.36,2013-07-02 23:45:00,
2013-07-02 18:50:00,78.6,46.3,30.00,NE,36,0.0,0.0,32,0.00,CLR,CLR,0.00,WeatherDisplay:10.36,2013-07-02 23:50:00,
2013-07-02 18:55:00,78.6,47.1,30.00,NE,38,0.0,0.0,33,0.00,CLR,CLR,0.00,WeatherDisplay:10.36,2013-07-02 23:55:00,
2013-07-02 18:56:00,78.6,47.1,30.00,NE,38,4.9,4.9,33,0.00,CLR,CLR,0.00,WeatherDisplay:10.36,2013-07-02 23:56:00,
2013-07-02 19:01:00,78.6,47.9,30.00,NE,38,3.6,3.6,34,0.00,CLR,CLR,0.00,WeatherDisplay:10.36,2013-07-03 00:01:00,
2013-07-02 19:03:00,78.6,47.9,30.00,NE,38,0.0,0.0,34,0.00,CLR,CLR,0.00,WeatherDisplay:10.36,2013-07-03 00:03:00,
2013-07-02 19:08:00,78.4,48.5,30.00,NE,41,4.6,4.6,35,0.00,CLR,CLR,0.00,WeatherDisplay:10.36,2013-07-03 00:08:00,
2013-07-02 19:13:00,78.3,48.4,30.00,NE,40,0.0,0.0,35,0.00,CLR,CLR,0.00,WeatherDisplay:10.36,2013-07-03 00:13:00,
2013-07-02 19:14:00,78.3,49.1,30.00,NE,40,0.0,0.0,36,0.00,CLR,CLR,0.00,WeatherDisplay:10.36,2013-07-03 00:14:00,
2013-07-02 19:19:00,78.3,49.8,30.00,NE,39,0.0,0.0,37,0.00,CLR,CLR,0.00,WeatherDisplay:10.36,2013-07-03 00:19:00,
2013-07-02 19:23:00,78.1,49.7,30.00,NE,40,0.0,0.0,37,0.00,CLR,CLR,0.00,WeatherDisplay:10.36,2013-07-03 00:23:00,
2013-07-02 19:28:00,77.9,50.2,30.00,NE,39,0.0,0.0,38,0.00,CLR,CLR,0.00,WeatherDisplay:10.36,2013-07-03 00:28:00,
2013-07-02 19:30:00,77.9,50.9,30.00,NE,39,0.0,0.0,39,0.00,CLR,CLR,0.00,WeatherDisplay:10.36,2013-07-03 00:30:00,
2013-07-02 19:34:00,77.7,50.8,30.03,NE,41,3.6,3.6,39,0.00,CLR,CLR,0.00,WeatherDisplay:10.36,2013-07-03 00:34:00,
2013-07-02 19:39:00,77.5,51.3,30.03,NE,41,0.0,0.0,40,0.00,CLR,CLR,0.00,WeatherDisplay:10.36,2013-07-03 00:39:00,
2013-07-02 19:44:00,77.2,51.0,30.03,NE,41,4.0,0.0,40,0.00,CLR,CLR,0.00,WeatherDisplay:10.36,2013-07-03 00:44:00,
2013-07-02 19:49:00,76.8,51.3,30.03,NE,39,3.5,0.0,41,0.00,CLR,CLR,0.00,WeatherDisplay:10.36,2013-07-03 00:49:00,
2013-07-02 19:54:00,76.5,51.0,30.03,NE,39,0.0,0.0,41,0.00,CLR,CLR,0.00,WeatherDisplay:10.36,2013-07-03 00:54:00,
2013-07-02 19:59:00,76.3,51.5,30.03,NE,39,0.0,0.0,42,0.00,CLR,CLR,0.00,WeatherDisplay:10.36,2013-07-03 00:59:00,
2013-07-02 20:01:00,76.3,51.5,30.03,NE,39,0.0,0.0,42,0.00,CLR,CLR,0.00,WeatherDisplay:10.36,2013-07-03 01:01:00,
2013-07-02 20:03:00,76.1,51.3,30.03,NE,39,4.9,0.0,42,0.00,CLR,CLR,0.00,WeatherDisplay:10.36,2013-07-03 01:03:00,
2013-07-02 20:08:00,75.7,51.6,30.03,NE,39,0.0,0.0,43,0.00,CLR,CLR,0.00,WeatherDisplay:10.36,2013-07-03 01:08:00,
2013-07-02 20:11:00,75.6,51.5,30.03,NE,39,0.0,0.0,43,0.00,CLR,CLR,0.00,WeatherDisplay:10.36,2013-07-03 01:11:00,
2013-07-02 20:16:00,75.4,51.3,30.03,NE,39,0.0,0.0,43,0.00,CLR,CLR,0.00,WeatherDisplay:10.36,2013-07-03 01:16:00,
2013-07-02 20:21:00,75.2,51.2,30.03,NE,39,0.0,0.0,43,0.00,CLR,CLR,0.00,WeatherDisplay:10.36,2013-07-03 01:21:00,
2013-07-02 20:26:00,74.8,50.8,30.03,NE,39,0.0,0.0,43,0.00,CLR,CLR,0.00,WeatherDisplay:10.36,2013-07-03 01:26:00,
2013-07-02 20:29:00,74.8,50.8,30.03,NE,39,0.0,0.0,43,0.00,CLR,CLR,0.00,WeatherDisplay:10.36,2013-07-03 01:29:00,
2013-07-02 20:34:00,74.5,51.1,30.03,NE,39,0.0,0.0,44,0.00,CLR,CLR,0.00,WeatherDisplay:10.36,2013-07-03 01:34:00,
2013-07-02 20:39:00,74.3,51.0,30.03,NE,39,0.0,0.0,44,0.00,CLR,CLR,0.00,WeatherDisplay:10.36,2013-07-03 01:39:00,
2013-07-02 20:44:00,73.9,50.6,30.03,NE,39,0.0,0.0,44,0.00,CLR,CLR,0.00,WeatherDisplay:10.36,2013-07-03 01:44:00,
2013-07-02 20:49:00,73.6,50.9,30.00,NE,39,0.0,0.0,45,0.00,CLR,CLR,0.00,WeatherDisplay:10.36,2013-07-03 01:49:00,
2013-07-02 20:52:00,73.6,50.9,30.00,NE,39,0.0,0.0,45,0.00,CLR,CLR,0.00,WeatherDisplay:10.36,2013-07-03 01:52:00,
2013-07-02 20:57:00,73.4,50.8,30.00,NE,39,0.0,0.0,45,0.00,CLR,CLR,0.00,WeatherDisplay:10.36,2013-07-03 01:57:00,
2013-07-02 20:59:00,73.4,50.8,30.00,NE,39,0.0,0.0,45,0.00,CLR,CLR,0.00,WeatherDisplay:10.36,2013-07-03 01:59:00,
2013-07-02 21:04:00,73.2,50.6,30.03,NE,39,0.0,0.0,45,0.00,CLR,CLR,0.00,WeatherDisplay:10.36,2013-07-03 02:04:00,
2013-07-02 21:09:00,73.0,50.4,30.03,NE,39,0.0,0.0,45,0.00,CLR,CLR,0.00,WeatherDisplay:10.36,2013-07-03 02:09:00,
2013-07-02 21:14:00,72.7,50.7,30.03,NE,39,0.0,0.0,46,0.00,CLR,CLR,0.00,WeatherDisplay:10.36,2013-07-03 02:14:00,
2013-07-02 21:19:00,72.7,50.7,30.03,NE,39,0.0,0.0,46,0.00,CLR,CLR,0.00,WeatherDisplay:10.36,2013-07-03 02:19:00,
2013-07-02 21:24:00,72.5,51.1,30.03,NE,39,0.0,0.0,47,0.00,CLR,CLR,0.00,WeatherDisplay:10.36,2013-07-03 02:24:00,
2013-07-02 21:30:00,72.1,50.8,30.03,NE,39,0.0,0.0,47,0.00,CLR,CLR,0.00,WeatherDisplay:10.36,2013-07-03 02:30:00,
2013-07-02 21:33:00,72.0,51.2,30.03,NE,39,0.0,0.0,48,0.00,CLR,CLR,0.00,WeatherDisplay:10.36,2013-07-03 02:33:00,
2013-07-02 21:38:00,71.8,51.6,30.03,NE,39,0.0,0.0,49,0.00,CLR,CLR,0.00,WeatherDisplay:10.36,2013-07-03 02:38:00,
2013-07-02 21:44:00,71.4,51.8,30.03,NE,39,0.0,0.0,50,0.00,CLR,CLR,0.00,WeatherDisplay:10.36,2013-07-03 02:44:00,
2013-07-02 21:48:00,71.4,51.8,30.03,NE,39,0.0,0.0,50,0.00,CLR,CLR,0.00,WeatherDisplay:10.36,2013-07-03 02:48:00,
2013-07-02 21:53:00,71.1,52.0,30.03,NE,39,0.0,0.0,51,0.00,CLR,CLR,0.00,WeatherDisplay:10.36,2013-07-03 02:53:00,
2013-07-02 21:58:00,70.7,52.2,30.03,NE,39,0.0,0.0,52,0.00,CLR,CLR,0.00,WeatherDisplay:10.36,2013-07-03 02:58:00,
2013-07-02 22:03:00,70.3,52.4,30.03,NE,39,0.0,0.0,53,0.00,CLR,CLR,0.00,WeatherDisplay:10.36,2013-07-03 03:03:00,
2013-07-02 22:08:00,70.3,52.9,30.03,NE,39,0.0,0.0,54,0.00,CLR,CLR,0.00,WeatherDisplay:10.36,2013-07-03 03:08:00,
2013-07-02 22:13:00,70.2,53.2,30.03,NE,39,0.0,0.0,55,0.00,CLR,CLR,0.00,WeatherDisplay:10.36,2013-07-03 03:13:00,
2013-07-02 22:18:00,70.0,53.6,30.03,NE,39,0.0,0.0,56,0.00,CLR,CLR,0.00,WeatherDisplay:10.36,2013-07-03 03:18:00,
2013-07-02 22:21:00,69.8,53.4,30.03,NE,39,0.0,0.0,56,0.00,CLR,CLR,0.00,WeatherDisplay:10.36,2013-07-03 03:21:00,
2013-07-02 22:27:00,69.8,53.4,30.03,NE,39,0.0,0.0,56,0.00,CLR,CLR,0.00,WeatherDisplay:10.36,2013-07-03 03:27:00,
2013-07-02 22:33:00,69.8,53.9,30.03,NE,39,0.0,0.0,57,0.00,CLR,CLR,0.00,WeatherDisplay:10.36,2013-07-03 03:33:00,
2013-07-02 22:36:00,69.6,53.7,30.03,NE,39,0.0,0.0,57,0.00,CLR,CLR,0.00,WeatherDisplay:10.36,2013-07-03 03:36:00,
2013-07-02 22:42:00,69.6,53.7,30.03,NE,39,0.0,0.0,57,0.00,CLR,CLR,0.00,WeatherDisplay:10.36,2013-07-03 03:42:00,
2013-07-02 22:43:00,69.6,53.7,30.03,NE,39,0.0,0.0,57,0.00,CLR,CLR,0.00,WeatherDisplay:10.36,2013-07-03 03:43:00,
2013-07-02 22:50:00,69.6,53.7,30.03,NE,39,0.0,0.0,57,0.00,CLR,CLR,0.00,WeatherDisplay:10.36,2013-07-03 03:50:00,
2013-07-02 22:53:00,69.6,53.2,30.03,NE,39,0.0,0.0,56,0.00,CLR,CLR,0.00,WeatherDisplay:10.36,2013-07-03 03:53:00,
2013-07-02 22:58:00,69.4,52.6,30.03,NE,39,0.0,0.0,55,0.00,CLR,CLR,0.00,WeatherDisplay:10.36,2013-07-03 03:58:00,
2013-07-02 23:01:00,69.4,52.6,30.03,NE,39,0.0,0.0,55,0.00,CLR,CLR,0.00,WeatherDisplay:10.36,2013-07-03 04:01:00,
2013-07-02 23:02:00,69.4,52.6,30.03,NE,39,0.0,0.0,55,0.00,CLR,CLR,0.00,WeatherDisplay:10.36,2013-07-03 04:02:00,
2013-07-02 23:03:00,69.3,52.4,30.03,NE,39,0.0,0.0,55,0.00,CLR,CLR,0.00,WeatherDisplay:10.36,2013-07-03 04:03:00,
2013-07-02 23:05:00,69.3,52.4,30.03,NE,39,0.0,0.0,55,0.00,CLR,CLR,0.00,WeatherDisplay:10.36,2013-07-03 04:05:00,
2013-07-02 23:07:00,69.3,52.9,30.03,NE,39,0.0,0.0,56,0.00,CLR,CLR,0.00,WeatherDisplay:10.36,2013-07-03 04:07:00,
2013-07-02 23:08:00,69.3,52.9,30.03,NE,39,0.0,0.0,56,0.00,CLR,CLR,0.00,WeatherDisplay:10.36,2013-07-03 04:08:00,
2013-07-02 23:13:00,69.1,52.7,30.03,NE,39,0.0,0.0,56,0.00,CLR,CLR,0.00,WeatherDisplay:10.36,2013-07-03 04:13:00,
2013-07-02 23:15:00,69.1,52.7,30.03,NE,39,0.0,0.0,56,0.00,CLR,CLR,0.00,WeatherDisplay:10.36,2013-07-03 04:15:00,
2013-07-02 23:20:00,69.1,52.7,30.03,NE,39,0.0,0.0,56,0.00,CLR,CLR,0.00,WeatherDisplay:10.36,2013-07-03 04:20:00,
2013-07-02 23:25:00,69.1,52.2,30.03,NE,39,0.0,0.0,55,0.00,CLR,CLR,0.00,WeatherDisplay:10.36,2013-07-03 04:25:00,
2013-07-02 23:30:00,68.9,52.1,30.03,NE,39,0.0,0.0,55,0.00,CLR,CLR,0.00,WeatherDisplay:10.36,2013-07-03 04:30:00,
2013-07-02 23:33:00,68.9,52.1,30.03,NE,39,0.0,0.0,55,0.00,CLR,CLR,0.00,WeatherDisplay:10.36,2013-07-03 04:33:00,
2013-07-02 23:37:00,68.9,52.6,30.03,NE,39,0.0,0.0,56,0.00,CLR,CLR,0.00,WeatherDisplay:10.36,2013-07-03 04:37:00,
2013-07-02 23:42:00,68.9,52.6,30.03,NE,39,0.0,0.0,56,0.00,CLR,CLR,0.00,WeatherDisplay:10.36,2013-07-03 04:42:00,
2013-07-02 23:47:00,68.9,52.1,30.03,NE,39,0.0,0.0,55,0.00,CLR,CLR,0.00,WeatherDisplay:10.36,2013-07-03 04:47:00,
2013-07-02 23:48:00,68.9,52.1,30.03,NE,39,0.0,0.0,55,0.00,CLR,CLR,0.00,WeatherDisplay:10.36,2013-07-03 04:48:00,
2013-07-02 23:51:00,68.9,52.1,30.03,NE,39,0.0,0.0,55,0.00,CLR,CLR,0.00,WeatherDisplay:10.36,2013-07-03 04:51:00,
2013-07-02 23:56:00,68.7,51.9,30.03,NE,39,0.0,0.0,55,0.00,CLR,CLR,0.00,WeatherDisplay:10.36,2013-07-03 04:56:00,